KBOK/BOK METAR and TAF weather

Enter ICAO airport designator
Station Type Date Time Source
KBOK METAR 2020/04/04 19:56 UTC NOAA

KBOK 041956Z AUTO 15008KT 10SM -RA OVC003 08/08 A2969 RMK AO2 RAE00B21 SLP057 P0001 T00830078


Station Type Date Time Source
KBOK Decoded METAR 2020/04/04 19:56 UTC NOAA

Brookings, Brookings Airport, OR, United States (KBOK) 42-04-28N 124-17-24W
Apr 04, 2020 - 03:56 PM EDT / 2020.04.04 1956 UTC
Wind: from the SSE (150 degrees) at 9 MPH (8 KT):0
Visibility: 10 mile(s):0
Sky conditions: overcast
Weather: light rain
Precipitation last hour: 0.01 inches
Temperature: 46.9 F (8.3 C)
Dew Point: 46.0 F (7.8 C)
Relative Humidity: 96%
Pressure (altimeter): 29.69 in. Hg (1005 hPa)
ob: KBOK 041956Z AUTO 15008KT 10SM -RA OVC003 08/08 A2969 RMK AO2 RAE00B21 SLP057 P0001 T00830078
cycle: 20

Station Type Date Time Source
KBOK TAF UTC NOAA

Error!

Example: see airport list